sensor_id;sensor_type;location;lat;lon;timestamp;P1;durP1;ratioP1;P2;durP2;ratioP2
78856;SDS011;68207;50.078;19.936;2023-12-20T00:02:01;16.20;;;8.20;;
78856;SDS011;68207;50.078;19.936;2023-12-20T00:04:27;13.30;;;7.60;;
78856;SDS011;68207;50.078;19.936;2023-12-20T00:06:52;15.00;;;8.40;;
78856;SDS011;68207;50.078;19.936;2023-12-20T00:09:17;16.90;;;9.20;;
78856;SDS011;68207;50.078;19.936;2023-12-20T00:11:43;16.00;;;7.90;;
78856;SDS011;68207;50.078;19.936;2023-12-20T00:14:08;15.40;;;8.60;;
78856;SDS011;68207;50.078;19.936;2023-12-20T00:16:33;15.00;;;8.70;;
78856;SDS011;68207;50.078;19.936;2023-12-20T00:18:58;15.70;;;7.90;;
78856;SDS011;68207;50.078;19.936;2023-12-20T00:21:23;15.30;;;8.40;;
78856;SDS011;68207;50.078;19.936;2023-12-20T00:23:48;16.70;;;8.20;;
78856;SDS011;68207;50.078;19.936;2023-12-20T00:26:14;15.20;;;7.90;;
78856;SDS011;68207;50.078;19.936;2023-12-20T00:28:39;18.10;;;8.10;;
78856;SDS011;68207;50.078;19.936;2023-12-20T00:31:04;12.50;;;8.00;;
78856;SDS011;68207;50.078;19.936;2023-12-20T00:33:29;14.20;;;8.00;;
78856;SDS011;68207;50.078;19.936;2023-12-20T00:35:54;14.10;;;8.50;;
78856;SDS011;68207;50.078;19.936;2023-12-20T00:38:19;17.70;;;7.80;;
78856;SDS011;68207;50.078;19.936;2023-12-20T00:40:45;14.90;;;7.00;;
78856;SDS011;68207;50.078;19.936;2023-12-20T00:43:10;16.90;;;8.40;;
78856;SDS011;68207;50.078;19.936;2023-12-20T00:45:35;13.50;;;7.50;;
78856;SDS011;68207;50.078;19.936;2023-12-20T00:48:00;11.50;;;6.90;;
78856;SDS011;68207;50.078;19.936;2023-12-20T00:50:25;13.30;;;6.90;;
78856;SDS011;68207;50.078;19.936;2023-12-20T00:52:50;12.30;;;7.40;;
78856;SDS011;68207;50.078;19.936;2023-12-20T00:55:15;14.10;;;7.60;;
78856;SDS011;68207;50.078;19.936;2023-12-20T00:57:41;11.90;;;6.90;;
78856;SDS011;68207;50.078;19.936;2023-12-20T01:00:06;13.80;;;7.40;;
78856;SDS011;68207;50.078;19.936;2023-12-20T01:02:31;12.10;;;7.10;;
78856;SDS011;68207;50.078;19.936;2023-12-20T01:04:56;14.20;;;7.00;;
78856;SDS011;68207;50.078;19.936;2023-12-20T01:07:21;12.70;;;8.10;;
78856;SDS011;68207;50.078;19.936;2023-12-20T01:09:46;14.50;;;7.40;;
78856;SDS011;68207;50.078;19.936;2023-12-20T01:12:12;11.80;;;6.70;;
78856;SDS011;68207;50.078;19.936;2023-12-20T01:14:37;12.60;;;6.30;;
78856;SDS011;68207;50.078;19.936;2023-12-20T01:17:02;12.60;;;6.80;;
78856;SDS011;68207;50.078;19.936;2023-12-20T01:19:27;12.30;;;6.50;;
78856;SDS011;68207;50.078;19.936;2023-12-20T01:21:53;12.30;;;6.40;;
78856;SDS011;68207;50.078;19.936;2023-12-20T01:24:18;11.20;;;6.50;;
78856;SDS011;68207;50.078;19.936;2023-12-20T01:26:43;13.50;;;6.90;;
78856;SDS011;68207;50.078;19.936;2023-12-20T01:29:08;11.50;;;6.60;;
78856;SDS011;68207;50.078;19.936;2023-12-20T01:31:34;10.60;;;6.30;;
78856;SDS011;68207;50.078;19.936;2023-12-20T01:33:59;10.70;;;6.20;;
78856;SDS011;68207;50.078;19.936;2023-12-20T01:36:24;11.30;;;6.00;;
78856;SDS011;68207;50.078;19.936;2023-12-20T01:38:49;9.60;;;5.70;;
78856;SDS011;68207;50.078;19.936;2023-12-20T01:41:14;9.00;;;5.50;;
78856;SDS011;68207;50.078;19.936;2023-12-20T01:43:39;7.80;;;4.80;;
78856;SDS011;68207;50.078;19.936;2023-12-20T01:46:05;9.00;;;4.90;;
78856;SDS011;68207;50.078;19.936;2023-12-20T01:48:30;8.30;;;5.20;;
78856;SDS011;68207;50.078;19.936;2023-12-20T01:53:23;8.90;;;5.30;;
78856;SDS011;68207;50.078;19.936;2023-12-20T01:55:49;8.20;;;4.40;;
78856;SDS011;68207;50.078;19.936;2023-12-20T01:58:15;7.20;;;4.70;;
78856;SDS011;68207;50.078;19.936;2023-12-20T02:00:40;7.20;;;4.70;;
78856;SDS011;68207;50.078;19.936;2023-12-20T02:03:05;8.90;;;5.50;;
78856;SDS011;68207;50.078;19.936;2023-12-20T02:05:31;8.50;;;5.10;;
78856;SDS011;68207;50.078;19.936;2023-12-20T02:07:56;8.50;;;5.30;;
78856;SDS011;68207;50.078;19.936;2023-12-20T02:10:22;9.80;;;6.00;;
78856;SDS011;68207;50.078;19.936;2023-12-20T02:12:47;9.80;;;4.90;;
78856;SDS011;68207;50.078;19.936;2023-12-20T02:15:13;9.40;;;4.80;;
78856;SDS011;68207;50.078;19.936;2023-12-20T02:17:38;7.40;;;4.40;;
78856;SDS011;68207;50.078;19.936;2023-12-20T02:20:04;6.90;;;4.20;;
78856;SDS011;68207;50.078;19.936;2023-12-20T02:22:30;8.40;;;4.80;;
78856;SDS011;68207;50.078;19.936;2023-12-20T02:24:55;7.30;;;4.60;;
78856;SDS011;68207;50.078;19.936;2023-12-20T02:27:20;7.50;;;5.00;;
78856;SDS011;68207;50.078;19.936;2023-12-20T02:29:47;9.20;;;4.70;;
78856;SDS011;68207;50.078;19.936;2023-12-20T02:32:13;7.80;;;4.20;;
78856;SDS011;68207;50.078;19.936;2023-12-20T02:34:38;8.00;;;4.90;;
78856;SDS011;68207;50.078;19.936;2023-12-20T02:37:03;7.60;;;4.50;;
78856;SDS011;68207;50.078;19.936;2023-12-20T02:39:28;6.40;;;4.30;;
78856;SDS011;68207;50.078;19.936;2023-12-20T02:41:53;6.40;;;4.30;;
78856;SDS011;68207;50.078;19.936;2023-12-20T02:44:18;7.30;;;4.50;;
78856;SDS011;68207;50.078;19.936;2023-12-20T02:46:44;7.80;;;4.70;;
78856;SDS011;68207;50.078;19.936;2023-12-20T02:49:09;8.20;;;4.30;;
78856;SDS011;68207;50.078;19.936;2023-12-20T02:51:34;6.30;;;4.30;;
78856;SDS011;68207;50.078;19.936;2023-12-20T02:54:03;6.80;;;4.00;;
78856;SDS011;68207;50.078;19.936;2023-12-20T02:56:28;5.60;;;4.10;;
78856;SDS011;68207;50.078;19.936;2023-12-20T02:58:53;5.10;;;3.50;;
78856;SDS011;68207;50.078;19.936;2023-12-20T03:01:18;7.40;;;4.30;;
78856;SDS011;68207;50.078;19.936;2023-12-20T03:03:43;7.80;;;4.80;;
78856;SDS011;68207;50.078;19.936;2023-12-20T03:06:08;6.80;;;4.50;;
78856;SDS011;68207;50.078;19.936;2023-12-20T03:08:33;5.90;;;3.90;;
78856;SDS011;68207;50.078;19.936;2023-12-20T03:10:59;6.60;;;4.30;;
78856;SDS011;68207;50.078;19.936;2023-12-20T03:13:24;7.10;;;4.30;;
78856;SDS011;68207;50.078;19.936;2023-12-20T03:15:49;6.70;;;4.20;;
78856;SDS011;68207;50.078;19.936;2023-12-20T03:18:14;5.70;;;4.00;;
78856;SDS011;68207;50.078;19.936;2023-12-20T03:20:39;6.60;;;3.90;;
78856;SDS011;68207;50.078;19.936;2023-12-20T03:23:06;6.30;;;4.20;;
78856;SDS011;68207;50.078;19.936;2023-12-20T03:25:31;6.70;;;4.40;;
78856;SDS011;68207;50.078;19.936;2023-12-20T03:27:56;7.30;;;4.50;;
78856;SDS011;68207;50.078;19.936;2023-12-20T03:30:21;6.90;;;4.50;;
78856;SDS011;68207;50.078;19.936;2023-12-20T03:32:46;6.60;;;4.50;;
78856;SDS011;68207;50.078;19.936;2023-12-20T03:35:12;7.70;;;4.40;;
78856;SDS011;68207;50.078;19.936;2023-12-20T03:37:37;6.30;;;4.20;;
78856;SDS011;68207;50.078;19.936;2023-12-20T03:40:02;6.70;;;4.90;;
78856;SDS011;68207;50.078;19.936;2023-12-20T03:42:28;6.90;;;4.40;;
78856;SDS011;68207;50.078;19.936;2023-12-20T03:44:53;6.60;;;4.00;;
78856;SDS011;68207;50.078;19.936;2023-12-20T03:47:18;6.10;;;4.20;;
78856;SDS011;68207;50.078;19.936;2023-12-20T03:49:43;7.30;;;4.20;;
78856;SDS011;68207;50.078;19.936;2023-12-20T03:52:08;6.20;;;3.90;;
78856;SDS011;68207;50.078;19.936;2023-12-20T03:54:34;7.30;;;4.10;;
78856;SDS011;68207;50.078;19.936;2023-12-20T03:57:00;7.60;;;4.60;;
78856;SDS011;68207;50.078;19.936;2023-12-20T03:59:25;7.30;;;4.60;;
78856;SDS011;68207;50.078;19.936;2023-12-20T04:01:50;7.10;;;4.40;;
78856;SDS011;68207;50.078;19.936;2023-12-20T04:04:15;7.30;;;4.20;;
78856;SDS011;68207;50.078;19.936;2023-12-20T04:06:40;6.60;;;4.40;;
78856;SDS011;68207;50.078;19.936;2023-12-20T04:09:05;6.00;;;3.90;;
78856;SDS011;68207;50.078;19.936;2023-12-20T04:11:31;7.60;;;4.70;;
78856;SDS011;68207;50.078;19.936;2023-12-20T04:13:56;7.60;;;4.30;;
78856;SDS011;68207;50.078;19.936;2023-12-20T04:16:21;7.20;;;4.20;;
78856;SDS011;68207;50.078;19.936;2023-12-20T04:18:46;5.80;;;4.00;;
78856;SDS011;68207;50.078;19.936;2023-12-20T04:21:11;6.60;;;4.20;;
78856;SDS011;68207;50.078;19.936;2023-12-20T04:23:37;6.80;;;4.20;;
78856;SDS011;68207;50.078;19.936;2023-12-20T04:26:02;7.10;;;4.20;;
78856;SDS011;68207;50.078;19.936;2023-12-20T04:28:27;8.90;;;4.20;;
78856;SDS011;68207;50.078;19.936;2023-12-20T04:30:55;5.80;;;4.00;;
78856;SDS011;68207;50.078;19.936;2023-12-20T04:33:20;6.00;;;4.10;;
78856;SDS011;68207;50.078;19.936;2023-12-20T04:35:45;7.30;;;4.50;;
78856;SDS011;68207;50.078;19.936;2023-12-20T04:38:11;6.70;;;4.60;;
78856;SDS011;68207;50.078;19.936;2023-12-20T04:40:36;6.80;;;4.10;;
78856;SDS011;68207;50.078;19.936;2023-12-20T04:43:01;6.40;;;4.70;;
78856;SDS011;68207;50.078;19.936;2023-12-20T04:45:26;6.40;;;4.20;;
78856;SDS011;68207;50.078;19.936;2023-12-20T04:47:51;7.00;;;4.40;;
78856;SDS011;68207;50.078;19.936;2023-12-20T04:50:17;7.80;;;4.90;;
78856;SDS011;68207;50.078;19.936;2023-12-20T04:52:42;6.40;;;4.30;;
78856;SDS011;68207;50.078;19.936;2023-12-20T04:55:07;6.10;;;4.30;;
78856;SDS011;68207;50.078;19.936;2023-12-20T04:57:33;7.50;;;4.60;;
78856;SDS011;68207;50.078;19.936;2023-12-20T04:59:58;7.10;;;4.20;;
78856;SDS011;68207;50.078;19.936;2023-12-20T05:02:23;6.80;;;3.90;;
78856;SDS011;68207;50.078;19.936;2023-12-20T05:04:49;8.20;;;4.00;;
78856;SDS011;68207;50.078;19.936;2023-12-20T05:07:14;6.90;;;3.80;;
78856;SDS011;68207;50.078;19.936;2023-12-20T05:09:39;4.90;;;3.10;;
78856;SDS011;68207;50.078;19.936;2023-12-20T05:12:04;7.40;;;3.60;;
78856;SDS011;68207;50.078;19.936;2023-12-20T05:14:29;5.30;;;3.40;;
78856;SDS011;68207;50.078;19.936;2023-12-20T05:16:55;5.20;;;3.40;;
78856;SDS011;68207;50.078;19.936;2023-12-20T05:19:21;4.70;;;3.20;;
78856;SDS011;68207;50.078;19.936;2023-12-20T05:21:46;5.30;;;3.60;;
78856;SDS011;68207;50.078;19.936;2023-12-20T05:24:11;4.90;;;3.20;;
78856;SDS011;68207;50.078;19.936;2023-12-20T05:26:37;5.10;;;2.80;;
78856;SDS011;68207;50.078;19.936;2023-12-20T05:29:02;4.60;;;3.20;;
78856;SDS011;68207;50.078;19.936;2023-12-20T05:31:27;3.90;;;2.80;;
78856;SDS011;68207;50.078;19.936;2023-12-20T05:33:52;4.80;;;2.90;;
78856;SDS011;68207;50.078;19.936;2023-12-20T05:36:18;5.70;;;3.10;;
78856;SDS011;68207;50.078;19.936;2023-12-20T05:38:43;4.70;;;3.10;;
78856;SDS011;68207;50.078;19.936;2023-12-20T05:41:08;3.80;;;2.80;;
78856;SDS011;68207;50.078;19.936;2023-12-20T05:43:33;5.00;;;3.10;;
78856;SDS011;68207;50.078;19.936;2023-12-20T05:45:59;4.60;;;3.20;;
78856;SDS011;68207;50.078;19.936;2023-12-20T05:48:24;7.60;;;3.30;;
78856;SDS011;68207;50.078;19.936;2023-12-20T05:50:49;4.40;;;3.20;;
78856;SDS011;68207;50.078;19.936;2023-12-20T05:53:14;6.70;;;3.30;;
78856;SDS011;68207;50.078;19.936;2023-12-20T05:55:39;4.70;;;3.00;;
78856;SDS011;68207;50.078;19.936;2023-12-20T05:58:05;4.80;;;3.30;;
78856;SDS011;68207;50.078;19.936;2023-12-20T06:00:30;5.00;;;3.20;;
78856;SDS011;68207;50.078;19.936;2023-12-20T06:02:55;5.90;;;3.80;;
78856;SDS011;68207;50.078;19.936;2023-12-20T06:05:20;5.50;;;3.50;;
78856;SDS011;68207;50.078;19.936;2023-12-20T06:07:45;4.90;;;3.50;;
78856;SDS011;68207;50.078;19.936;2023-12-20T06:10:13;5.10;;;3.60;;
78856;SDS011;68207;50.078;19.936;2023-12-20T06:12:38;5.10;;;3.60;;
78856;SDS011;68207;50.078;19.936;2023-12-20T06:15:04;5.40;;;3.30;;
78856;SDS011;68207;50.078;19.936;2023-12-20T06:17:29;5.10;;;3.30;;
78856;SDS011;68207;50.078;19.936;2023-12-20T06:19:55;5.80;;;3.70;;
78856;SDS011;68207;50.078;19.936;2023-12-20T06:22:20;5.90;;;3.50;;
78856;SDS011;68207;50.078;19.936;2023-12-20T06:24:46;6.20;;;3.50;;
78856;SDS011;68207;50.078;19.936;2023-12-20T06:27:11;6.40;;;3.70;;
78856;SDS011;68207;50.078;19.936;2023-12-20T06:29:36;4.30;;;3.40;;
78856;SDS011;68207;50.078;19.936;2023-12-20T06:32:01;6.50;;;3.70;;
78856;SDS011;68207;50.078;19.936;2023-12-20T06:34:26;6.20;;;3.40;;
78856;SDS011;68207;50.078;19.936;2023-12-20T06:36:52;5.50;;;4.10;;
78856;SDS011;68207;50.078;19.936;2023-12-20T06:39:17;8.90;;;4.50;;
78856;SDS011;68207;50.078;19.936;2023-12-20T06:41:42;5.00;;;4.00;;
78856;SDS011;68207;50.078;19.936;2023-12-20T06:44:08;7.60;;;4.20;;
78856;SDS011;68207;50.078;19.936;2023-12-20T06:46:33;5.80;;;4.10;;
78856;SDS011;68207;50.078;19.936;2023-12-20T06:48:58;7.20;;;4.50;;
78856;SDS011;68207;50.078;19.936;2023-12-20T06:51:23;8.10;;;4.40;;
78856;SDS011;68207;50.078;19.936;2023-12-20T06:53:50;5.70;;;4.00;;
78856;SDS011;68207;50.078;19.936;2023-12-20T06:56:15;8.60;;;4.50;;
78856;SDS011;68207;50.078;19.936;2023-12-20T06:58:41;8.10;;;4.80;;
78856;SDS011;68207;50.078;19.936;2023-12-20T07:01:10;8.20;;;5.20;;
78856;SDS011;68207;50.078;19.936;2023-12-20T07:03:35;7.10;;;5.10;;
78856;SDS011;68207;50.078;19.936;2023-12-20T07:06:00;8.70;;;5.20;;
78856;SDS011;68207;50.078;19.936;2023-12-20T07:08:26;7.40;;;5.00;;
78856;SDS011;68207;50.078;19.936;2023-12-20T07:10:51;7.70;;;5.00;;
78856;SDS011;68207;50.078;19.936;2023-12-20T07:13:16;8.30;;;5.10;;
78856;SDS011;68207;50.078;19.936;2023-12-20T07:15:41;6.30;;;4.90;;
78856;SDS011;68207;50.078;19.936;2023-12-20T07:18:07;6.10;;;4.80;;
78856;SDS011;68207;50.078;19.936;2023-12-20T07:20:32;8.70;;;5.30;;
78856;SDS011;68207;50.078;19.936;2023-12-20T07:22:57;7.40;;;5.30;;
78856;SDS011;68207;50.078;19.936;2023-12-20T07:25:22;9.80;;;4.80;;
78856;SDS011;68207;50.078;19.936;2023-12-20T07:27:47;8.80;;;5.00;;
78856;SDS011;68207;50.078;19.936;2023-12-20T07:30:12;7.90;;;4.50;;
78856;SDS011;68207;50.078;19.936;2023-12-20T07:32:38;9.10;;;4.90;;
78856;SDS011;68207;50.078;19.936;2023-12-20T07:35:03;9.90;;;5.20;;
78856;SDS011;68207;50.078;19.936;2023-12-20T07:37:28;7.10;;;5.00;;
78856;SDS011;68207;50.078;19.936;2023-12-20T07:39:53;5.80;;;4.40;;
78856;SDS011;68207;50.078;19.936;2023-12-20T07:42:18;6.50;;;4.80;;
78856;SDS011;68207;50.078;19.936;2023-12-20T07:44:44;11.00;;;5.50;;
78856;SDS011;68207;50.078;19.936;2023-12-20T07:47:09;6.80;;;4.90;;
78856;SDS011;68207;50.078;19.936;2023-12-20T07:49:34;8.10;;;4.80;;
78856;SDS011;68207;50.078;19.936;2023-12-20T07:51:59;6.50;;;4.80;;
78856;SDS011;68207;50.078;19.936;2023-12-20T07:54:24;9.00;;;5.10;;
78856;SDS011;68207;50.078;19.936;2023-12-20T07:56:49;7.50;;;5.10;;
78856;SDS011;68207;50.078;19.936;2023-12-20T07:59:15;8.70;;;5.40;;
78856;SDS011;68207;50.078;19.936;2023-12-20T08:01:40;7.30;;;5.40;;
78856;SDS011;68207;50.078;19.936;2023-12-20T08:04:05;8.30;;;5.70;;
78856;SDS011;68207;50.078;19.936;2023-12-20T08:06:30;7.60;;;5.80;;
78856;SDS011;68207;50.078;19.936;2023-12-20T08:08:55;8.10;;;5.90;;
78856;SDS011;68207;50.078;19.936;2023-12-20T08:11:20;9.00;;;5.90;;
78856;SDS011;68207;50.078;19.936;2023-12-20T08:13:46;7.90;;;5.90;;
78856;SDS011;68207;50.078;19.936;2023-12-20T08:16:11;8.40;;;6.60;;
78856;SDS011;68207;50.078;19.936;2023-12-20T08:18:38;9.10;;;6.20;;
78856;SDS011;68207;50.078;19.936;2023-12-20T08:21:03;8.70;;;5.60;;
78856;SDS011;68207;50.078;19.936;2023-12-20T08:23:28;10.40;;;6.60;;
78856;SDS011;68207;50.078;19.936;2023-12-20T08:25:54;9.20;;;6.70;;
78856;SDS011;68207;50.078;19.936;2023-12-20T08:28:19;8.40;;;6.40;;
78856;SDS011;68207;50.078;19.936;2023-12-20T08:30:44;9.10;;;6.50;;
78856;SDS011;68207;50.078;19.936;2023-12-20T08:33:09;9.60;;;6.70;;
78856;SDS011;68207;50.078;19.936;2023-12-20T08:35:37;10.70;;;7.10;;
78856;SDS011;68207;50.078;19.936;2023-12-20T08:38:03;9.10;;;7.40;;
78856;SDS011;68207;50.078;19.936;2023-12-20T08:40:29;9.80;;;7.10;;
78856;SDS011;68207;50.078;19.936;2023-12-20T08:42:54;10.60;;;6.90;;
78856;SDS011;68207;50.078;19.936;2023-12-20T08:45:20;11.20;;;7.90;;
78856;SDS011;68207;50.078;19.936;2023-12-20T08:47:45;12.20;;;7.00;;
78856;SDS011;68207;50.078;19.936;2023-12-20T08:50:10;8.70;;;7.10;;
78856;SDS011;68207;50.078;19.936;2023-12-20T08:52:35;9.10;;;7.50;;
78856;SDS011;68207;50.078;19.936;2023-12-20T08:55:01;12.50;;;8.30;;
78856;SDS011;68207;50.078;19.936;2023-12-20T08:57:26;11.20;;;7.20;;
78856;SDS011;68207;50.078;19.936;2023-12-20T08:59:51;9.80;;;7.00;;
78856;SDS011;68207;50.078;19.936;2023-12-20T09:02:16;11.30;;;7.10;;
78856;SDS011;68207;50.078;19.936;2023-12-20T09:04:42;10.40;;;7.50;;
78856;SDS011;68207;50.078;19.936;2023-12-20T09:07:07;11.20;;;7.50;;
78856;SDS011;68207;50.078;19.936;2023-12-20T09:09:45;10.40;;;7.30;;
78856;SDS011;68207;50.078;19.936;2023-12-20T09:12:10;8.80;;;6.70;;
78856;SDS011;68207;50.078;19.936;2023-12-20T09:14:35;10.40;;;6.60;;
78856;SDS011;68207;50.078;19.936;2023-12-20T09:17:00;10.40;;;6.80;;
78856;SDS011;68207;50.078;19.936;2023-12-20T09:19:26;9.20;;;6.80;;
78856;SDS011;68207;50.078;19.936;2023-12-20T09:21:51;9.70;;;6.90;;
78856;SDS011;68207;50.078;19.936;2023-12-20T09:24:16;10.80;;;7.00;;
78856;SDS011;68207;50.078;19.936;2023-12-20T09:26:41;9.40;;;6.50;;
78856;SDS011;68207;50.078;19.936;2023-12-20T09:29:07;8.60;;;6.40;;
78856;SDS011;68207;50.078;19.936;2023-12-20T09:31:36;10.40;;;7.30;;
78856;SDS011;68207;50.078;19.936;2023-12-20T09:34:01;9.60;;;7.10;;
78856;SDS011;68207;50.078;19.936;2023-12-20T09:36:28;10.50;;;6.50;;
78856;SDS011;68207;50.078;19.936;2023-12-20T09:38:53;9.90;;;6.60;;
78856;SDS011;68207;50.078;19.936;2023-12-20T09:41:19;7.40;;;5.90;;
78856;SDS011;68207;50.078;19.936;2023-12-20T09:43:44;9.80;;;6.30;;
78856;SDS011;68207;50.078;19.936;2023-12-20T09:46:49;8.80;;;6.10;;
78856;SDS011;68207;50.078;19.936;2023-12-20T09:50:06;9.00;;;6.80;;
78856;SDS011;68207;50.078;19.936;2023-12-20T09:52:32;8.70;;;6.00;;
78856;SDS011;68207;50.078;19.936;2023-12-20T09:54:59;7.80;;;5.60;;
78856;SDS011;68207;50.078;19.936;2023-12-20T09:57:26;7.60;;;5.40;;
78856;SDS011;68207;50.078;19.936;2023-12-20T10:02:14;7.60;;;5.90;;
78856;SDS011;68207;50.078;19.936;2023-12-20T10:04:44;9.70;;;5.90;;
78856;SDS011;68207;50.078;19.936;2023-12-20T10:07:11;7.80;;;5.60;;
78856;SDS011;68207;50.078;19.936;2023-12-20T10:09:36;8.20;;;5.50;;
78856;SDS011;68207;50.078;19.936;2023-12-20T10:12:02;8.90;;;5.70;;
78856;SDS011;68207;50.078;19.936;2023-12-20T10:14:27;8.20;;;5.60;;
78856;SDS011;68207;50.078;19.936;2023-12-20T10:16:52;8.20;;;5.30;;
78856;SDS011;68207;50.078;19.936;2023-12-20T10:19:19;10.10;;;5.20;;
78856;SDS011;68207;50.078;19.936;2023-12-20T10:21:44;6.20;;;5.00;;
78856;SDS011;68207;50.078;19.936;2023-12-20T10:24:10;7.00;;;4.90;;
78856;SDS011;68207;50.078;19.936;2023-12-20T10:26:41;7.40;;;5.50;;
78856;SDS011;68207;50.078;19.936;2023-12-20T10:29:06;7.70;;;5.30;;
78856;SDS011;68207;50.078;19.936;2023-12-20T10:31:32;7.20;;;5.40;;
78856;SDS011;68207;50.078;19.936;2023-12-20T10:33:58;7.60;;;5.30;;
78856;SDS011;68207;50.078;19.936;2023-12-20T10:36:25;7.30;;;5.20;;
78856;SDS011;68207;50.078;19.936;2023-12-20T10:38:51;9.20;;;6.10;;
78856;SDS011;68207;50.078;19.936;2023-12-20T10:41:17;8.00;;;5.30;;
78856;SDS011;68207;50.078;19.936;2023-12-20T10:43:47;7.20;;;5.30;;
78856;SDS011;68207;50.078;19.936;2023-12-20T10:46:12;7.00;;;5.30;;
78856;SDS011;68207;50.078;19.936;2023-12-20T10:48:38;7.60;;;5.10;;
78856;SDS011;68207;50.078;19.936;2023-12-20T10:51:04;7.50;;;5.10;;
78856;SDS011;68207;50.078;19.936;2023-12-20T10:53:30;8.30;;;5.10;;
78856;SDS011;68207;50.078;19.936;2023-12-20T10:55:56;7.90;;;5.60;;
78856;SDS011;68207;50.078;19.936;2023-12-20T10:58:25;9.00;;;6.00;;
78856;SDS011;68207;50.078;19.936;2023-12-20T11:00:50;7.00;;;5.10;;
78856;SDS011;68207;50.078;19.936;2023-12-20T11:03:21;8.10;;;5.20;;
78856;SDS011;68207;50.078;19.936;2023-12-20T11:05:54;7.30;;;4.70;;
78856;SDS011;68207;50.078;19.936;2023-12-20T11:13:40;9.70;;;5.40;;
78856;SDS011;68207;50.078;19.936;2023-12-20T11:16:09;7.20;;;5.20;;
78856;SDS011;68207;50.078;19.936;2023-12-20T11:18:34;9.40;;;5.80;;
78856;SDS011;68207;50.078;19.936;2023-12-20T11:21:04;10.60;;;5.50;;
78856;SDS011;68207;50.078;19.936;2023-12-20T11:23:29;7.90;;;5.60;;
78856;SDS011;68207;50.078;19.936;2023-12-20T11:25:56;8.00;;;5.20;;
78856;SDS011;68207;50.078;19.936;2023-12-20T11:28:23;7.00;;;4.90;;
78856;SDS011;68207;50.078;19.936;2023-12-20T11:30:50;8.20;;;5.00;;
78856;SDS011;68207;50.078;19.936;2023-12-20T11:33:15;6.50;;;4.70;;
78856;SDS011;68207;50.078;19.936;2023-12-20T11:35:41;6.80;;;5.00;;
78856;SDS011;68207;50.078;19.936;2023-12-20T11:38:07;9.30;;;4.70;;
78856;SDS011;68207;50.078;19.936;2023-12-20T11:40:33;7.80;;;4.70;;
78856;SDS011;68207;50.078;19.936;2023-12-20T11:42:58;7.20;;;4.80;;
78856;SDS011;68207;50.078;19.936;2023-12-20T11:45:24;8.70;;;4.60;;
78856;SDS011;68207;50.078;19.936;2023-12-20T11:47:50;8.00;;;5.20;;
78856;SDS011;68207;50.078;19.936;2023-12-20T11:50:16;10.90;;;5.10;;
78856;SDS011;68207;50.078;19.936;2023-12-20T11:52:41;8.10;;;5.30;;
78856;SDS011;68207;50.078;19.936;2023-12-20T11:55:06;8.00;;;4.60;;
78856;SDS011;68207;50.078;19.936;2023-12-20T11:57:32;6.50;;;4.40;;
78856;SDS011;68207;50.078;19.936;2023-12-20T11:59:57;8.50;;;4.80;;
78856;SDS011;68207;50.078;19.936;2023-12-20T12:02:22;6.90;;;4.40;;
78856;SDS011;68207;50.078;19.936;2023-12-20T12:04:49;6.60;;;4.40;;
78856;SDS011;68207;50.078;19.936;2023-12-20T12:07:14;6.20;;;4.50;;
78856;SDS011;68207;50.078;19.936;2023-12-20T12:09:39;5.50;;;4.40;;
78856;SDS011;68207;50.078;19.936;2023-12-20T12:12:04;5.20;;;3.90;;
78856;SDS011;68207;50.078;19.936;2023-12-20T12:14:30;5.80;;;4.50;;
78856;SDS011;68207;50.078;19.936;2023-12-20T12:16:55;6.00;;;4.50;;
78856;SDS011;68207;50.078;19.936;2023-12-20T12:19:21;5.60;;;4.10;;
78856;SDS011;68207;50.078;19.936;2023-12-20T12:21:47;7.10;;;4.70;;
78856;SDS011;68207;50.078;19.936;2023-12-20T12:24:12;6.40;;;4.70;;
78856;SDS011;68207;50.078;19.936;2023-12-20T12:26:37;7.60;;;4.60;;
78856;SDS011;68207;50.078;19.936;2023-12-20T12:29:02;6.60;;;4.80;;
78856;SDS011;68207;50.078;19.936;2023-12-20T12:31:28;7.70;;;5.30;;
78856;SDS011;68207;50.078;19.936;2023-12-20T12:33:55;6.40;;;4.30;;
78856;SDS011;68207;50.078;19.936;2023-12-20T12:36:21;7.10;;;5.30;;
78856;SDS011;68207;50.078;19.936;2023-12-20T12:38:46;7.40;;;4.60;;
78856;SDS011;68207;50.078;19.936;2023-12-20T12:41:12;6.30;;;4.90;;
78856;SDS011;68207;50.078;19.936;2023-12-20T12:43:38;6.60;;;4.60;;
78856;SDS011;68207;50.078;19.936;2023-12-20T12:46:03;7.20;;;4.90;;
78856;SDS011;68207;50.078;19.936;2023-12-20T12:48:28;5.80;;;4.40;;
78856;SDS011;68207;50.078;19.936;2023-12-20T12:50:53;7.50;;;4.30;;
78856;SDS011;68207;50.078;19.936;2023-12-20T12:53:19;6.10;;;4.20;;
78856;SDS011;68207;50.078;19.936;2023-12-20T12:55:44;6.50;;;4.70;;
78856;SDS011;68207;50.078;19.936;2023-12-20T12:58:09;7.50;;;4.20;;
78856;SDS011;68207;50.078;19.936;2023-12-20T13:00:35;6.70;;;4.20;;
78856;SDS011;68207;50.078;19.936;2023-12-20T13:03:00;6.20;;;4.60;;
78856;SDS011;68207;50.078;19.936;2023-12-20T13:05:25;6.30;;;5.10;;
78856;SDS011;68207;50.078;19.936;2023-12-20T13:07:50;6.90;;;5.10;;
78856;SDS011;68207;50.078;19.936;2023-12-20T13:10:15;8.20;;;4.70;;
78856;SDS011;68207;50.078;19.936;2023-12-20T13:12:41;6.20;;;4.30;;
78856;SDS011;68207;50.078;19.936;2023-12-20T13:15:07;5.80;;;4.50;;
78856;SDS011;68207;50.078;19.936;2023-12-20T13:17:32;7.40;;;4.40;;
78856;SDS011;68207;50.078;19.936;2023-12-20T13:19:57;7.70;;;4.70;;
78856;SDS011;68207;50.078;19.936;2023-12-20T13:22:22;6.40;;;4.40;;
78856;SDS011;68207;50.078;19.936;2023-12-20T13:24:47;7.10;;;4.40;;
78856;SDS011;68207;50.078;19.936;2023-12-20T13:27:13;8.30;;;5.10;;
78856;SDS011;68207;50.078;19.936;2023-12-20T13:29:38;7.20;;;4.90;;
78856;SDS011;68207;50.078;19.936;2023-12-20T13:32:03;8.60;;;5.00;;
78856;SDS011;68207;50.078;19.936;2023-12-20T13:34:28;6.80;;;4.70;;
78856;SDS011;68207;50.078;19.936;2023-12-20T13:36:54;7.00;;;4.90;;
78856;SDS011;68207;50.078;19.936;2023-12-20T13:39:19;7.40;;;5.10;;
78856;SDS011;68207;50.078;19.936;2023-12-20T13:41:44;7.40;;;5.30;;
78856;SDS011;68207;50.078;19.936;2023-12-20T13:44:09;8.00;;;5.00;;
78856;SDS011;68207;50.078;19.936;2023-12-20T13:46:35;7.40;;;4.90;;
78856;SDS011;68207;50.078;19.936;2023-12-20T13:49:00;9.50;;;5.40;;
78856;SDS011;68207;50.078;19.936;2023-12-20T13:51:26;7.30;;;4.80;;
78856;SDS011;68207;50.078;19.936;2023-12-20T13:53:51;7.00;;;5.00;;
78856;SDS011;68207;50.078;19.936;2023-12-20T13:56:17;8.60;;;5.10;;
78856;SDS011;68207;50.078;19.936;2023-12-20T13:58:43;6.50;;;5.30;;
78856;SDS011;68207;50.078;19.936;2023-12-20T14:01:09;9.30;;;5.40;;
78856;SDS011;68207;50.078;19.936;2023-12-20T14:03:35;6.10;;;5.00;;
78856;SDS011;68207;50.078;19.936;2023-12-20T14:06:00;9.80;;;5.70;;
78856;SDS011;68207;50.078;19.936;2023-12-20T14:08:26;7.70;;;5.50;;
78856;SDS011;68207;50.078;19.936;2023-12-20T14:10:52;8.50;;;5.60;;
78856;SDS011;68207;50.078;19.936;2023-12-20T14:13:17;8.10;;;5.30;;
78856;SDS011;68207;50.078;19.936;2023-12-20T14:15:42;7.50;;;5.30;;
78856;SDS011;68207;50.078;19.936;2023-12-20T14:18:07;7.70;;;5.10;;
78856;SDS011;68207;50.078;19.936;2023-12-20T14:20:37;8.20;;;5.70;;
78856;SDS011;68207;50.078;19.936;2023-12-20T14:23:04;9.70;;;5.80;;
78856;SDS011;68207;50.078;19.936;2023-12-20T14:25:29;8.30;;;5.30;;
78856;SDS011;68207;50.078;19.936;2023-12-20T14:27:56;7.90;;;5.40;;
78856;SDS011;68207;50.078;19.936;2023-12-20T14:30:21;8.50;;;5.60;;
78856;SDS011;68207;50.078;19.936;2023-12-20T14:32:46;9.40;;;5.80;;
78856;SDS011;68207;50.078;19.936;2023-12-20T14:35:13;10.80;;;5.90;;